Decoded Metar for CYRV (REVELSTOKE AIRPO in BC, CANADA) (IATA:YRV) | Meteo·Mobile Aviation Weather
aviador You're here:

CYRV Decoded Metar

REVELSTOKE AIRPO in BC, CANADA
Report Time2018-11-17 02:00:00
UTC Time2018-11-17 03:06:56
Flight Rules Old
WindVRB at 02 kt
Visibility9999 m
Phenomena:N/A
Clouds:N/A
Expected CloudBase > 400 ft AGL from Temp-Dew spread
CeilingNone
Temp00°C (ISA -12)
Dew Point-1°C (93% RH)
AAT-2.8°C
QNH1028 hPa
Density Alt-449 ft
Elevation1,453 ft
Report Wrong Elevation
Raw Report
CYRV 170200Z AUTO VRB02KT 9SM CLR 00/M01 A3035 RMK SLP300=

Extra information for CYRV:More info

Metar Taf Metar & Taf Last 4 Metars F.Rules Stats Wind Profile Meteogram Temp Stats Airport Information Weather charts Add Link Nearby VenuesMetar ALERT Operation Metar Decoded Social comments